sensor_id;sensor_type;location;lat;lon;timestamp;pressure;altitude;pressure_sealevel;temperature;humidity
23253;BME280;11795;47.054;15.408;2023-02-13T00:00:00;99430;;;1.2;73.5
23253;BME280;11795;47.054;15.408;2023-02-13T00:02:00;99430;;;1.1;73.7
23253;BME280;11795;47.054;15.408;2023-02-13T00:04:00;99430;;;1.3;73.1
23253;BME280;11795;47.054;15.408;2023-02-13T00:06:00;99420;;;1.1;73.4
23253;BME280;11795;47.054;15.408;2023-02-13T00:08:00;99420;;;1.3;73.3
23253;BME280;11795;47.054;15.408;2023-02-13T00:10:00;99420;;;1.2;73.5
23253;BME280;11795;47.054;15.408;2023-02-13T00:12:00;99420;;;1.1;73.7
23253;BME280;11795;47.054;15.408;2023-02-13T00:14:00;99420;;;1.2;73.3
23253;BME280;11795;47.054;15.408;2023-02-13T00:16:02;99430;;;0.9;74.1
23253;BME280;11795;47.054;15.408;2023-02-13T00:18:01;99420;;;1.1;73.5
23253;BME280;11795;47.054;15.408;2023-02-13T00:20:00;99430;;;0.9;73.9
23253;BME280;11795;47.054;15.408;2023-02-13T00:22:00;99430;;;0.8;74.9
23253;BME280;11795;47.054;15.408;2023-02-13T00:24:00;99430;;;0.9;74.3
23253;BME280;11795;47.054;15.408;2023-02-13T00:26:04;99430;;;0.8;74.5
23253;BME280;11795;47.054;15.408;2023-02-13T00:28:00;99430;;;1.0;74.0
23253;BME280;11795;47.054;15.408;2023-02-13T00:30:00;99430;;;0.8;74.2
23253;BME280;11795;47.054;15.408;2023-02-13T00:32:00;99430;;;0.7;74.7
23253;BME280;11795;47.054;15.408;2023-02-13T00:34:00;99430;;;0.8;74.4
23253;BME280;11795;47.054;15.408;2023-02-13T00:36:03;99430;;;0.7;74.8
23253;BME280;11795;47.054;15.408;2023-02-13T00:38:00;99430;;;0.9;74.4
23253;BME280;11795;47.054;15.408;2023-02-13T00:40:00;99430;;;0.7;74.6
23253;BME280;11795;47.054;15.408;2023-02-13T00:42:00;99430;;;0.6;74.9
23253;BME280;11795;47.054;15.408;2023-02-13T00:44:00;99430;;;0.8;74.4
23253;BME280;11795;47.054;15.408;2023-02-13T00:46:00;99430;;;0.6;75.1
23253;BME280;11795;47.054;15.408;2023-02-13T00:48:00;99430;;;0.8;74.6
23253;BME280;11795;47.054;15.408;2023-02-13T00:50:00;99430;;;0.6;75.1
23253;BME280;11795;47.054;15.408;2023-02-13T00:52:00;99430;;;0.6;75.1
23253;BME280;11795;47.054;15.408;2023-02-13T00:54:00;99430;;;0.7;75.1
23253;BME280;11795;47.054;15.408;2023-02-13T00:56:00;99440;;;0.6;75.4
23253;BME280;11795;47.054;15.408;2023-02-13T00:58:00;99430;;;0.8;75.2
23253;BME280;11795;47.054;15.408;2023-02-13T01:00:01;99430;;;0.6;75.7
23253;BME280;11795;47.054;15.408;2023-02-13T01:02:00;99430;;;0.6;76.0
23253;BME280;11795;47.054;15.408;2023-02-13T01:04:00;99430;;;0.7;75.5
23253;BME280;11795;47.054;15.408;2023-02-13T01:06:00;99430;;;0.6;75.9
23253;BME280;11795;47.054;15.408;2023-02-13T01:08:00;99430;;;0.7;75.8
23253;BME280;11795;47.054;15.408;2023-02-13T01:10:00;99430;;;0.5;76.2
23253;BME280;11795;47.054;15.408;2023-02-13T01:12:00;99430;;;0.5;76.6
23253;BME280;11795;47.054;15.408;2023-02-13T01:14:00;99430;;;0.6;76.3
23253;BME280;11795;47.054;15.408;2023-02-13T01:16:00;99430;;;0.5;76.6
23253;BME280;11795;47.054;15.408;2023-02-13T01:18:00;99430;;;0.7;76.0
23253;BME280;11795;47.054;15.408;2023-02-13T01:20:00;99420;;;0.5;76.2
23253;BME280;11795;47.054;15.408;2023-02-13T01:22:00;99430;;;0.4;76.4
23253;BME280;11795;47.054;15.408;2023-02-13T01:24:03;99420;;;0.5;75.9
23253;BME280;11795;47.054;15.408;2023-02-13T01:26:02;99420;;;0.4;76.3
23253;BME280;11795;47.054;15.408;2023-02-13T01:28:00;99420;;;0.5;75.9
23253;BME280;11795;47.054;15.408;2023-02-13T01:30:00;99420;;;0.4;76.0
23253;BME280;11795;47.054;15.408;2023-02-13T01:32:03;99420;;;0.3;76.4
23253;BME280;11795;47.054;15.408;2023-02-13T01:34:00;99420;;;0.4;75.8
23253;BME280;11795;47.054;15.408;2023-02-13T01:36:05;99420;;;0.3;76.3
23253;BME280;11795;47.054;15.408;2023-02-13T01:38:00;99420;;;0.6;75.9
23253;BME280;11795;47.054;15.408;2023-02-13T01:40:00;99420;;;0.4;76.4
23253;BME280;11795;47.054;15.408;2023-02-13T01:42:00;99420;;;0.3;76.7
23253;BME280;11795;47.054;15.408;2023-02-13T01:44:01;99420;;;0.5;76.1
23253;BME280;11795;47.054;15.408;2023-02-13T01:46:00;99420;;;0.3;76.7
23253;BME280;11795;47.054;15.408;2023-02-13T01:48:02;99420;;;0.6;76.3
23253;BME280;11795;47.054;15.408;2023-02-13T01:50:05;99420;;;0.4;76.6
23253;BME280;11795;47.054;15.408;2023-02-13T01:52:00;99420;;;0.3;76.8
23253;BME280;11795;47.054;15.408;2023-02-13T01:54:03;99420;;;0.4;76.3
23253;BME280;11795;47.054;15.408;2023-02-13T01:56:04;99420;;;0.3;76.7
23253;BME280;11795;47.054;15.408;2023-02-13T01:58:03;99420;;;0.5;76.4
23253;BME280;11795;47.054;15.408;2023-02-13T02:00:04;99430;;;0.3;76.8
23253;BME280;11795;47.054;15.408;2023-02-13T02:02:01;99430;;;0.2;77.3
23253;BME280;11795;47.054;15.408;2023-02-13T02:04:06;99420;;;0.3;76.9
23253;BME280;11795;47.054;15.408;2023-02-13T02:06:01;99420;;;0.2;77.2
23253;BME280;11795;47.054;15.408;2023-02-13T02:08:02;99420;;;0.4;77.0
23253;BME280;11795;47.054;15.408;2023-02-13T02:10:03;99410;;;0.3;77.4
23253;BME280;11795;47.054;15.408;2023-02-13T02:12:04;99420;;;0.2;77.5
23253;BME280;11795;47.054;15.408;2023-02-13T02:14:01;99410;;;0.3;77.0
23253;BME280;11795;47.054;15.408;2023-02-13T02:16:01;99410;;;0.2;77.4
23253;BME280;11795;47.054;15.408;2023-02-13T02:18:00;99410;;;0.4;76.9
23253;BME280;11795;47.054;15.408;2023-02-13T02:20:07;99410;;;0.2;77.2
23253;BME280;11795;47.054;15.408;2023-02-13T02:22:16;99410;;;0.1;77.6
23253;BME280;11795;47.054;15.408;2023-02-13T02:24:16;99410;;;0.2;77.2
23253;BME280;11795;47.054;15.408;2023-02-13T02:26:15;99410;;;0.1;77.6
23253;BME280;11795;47.054;15.408;2023-02-13T02:28:13;99410;;;0.3;77.1
23253;BME280;11795;47.054;15.408;2023-02-13T02:30:19;99410;;;0.2;77.3
23253;BME280;11795;47.054;15.408;2023-02-13T02:32:16;99410;;;0.1;77.6
23253;BME280;11795;47.054;15.408;2023-02-13T02:34:11;99410;;;0.2;77.1
23253;BME280;11795;47.054;15.408;2023-02-13T02:36:10;99410;;;0.0;77.5
23253;BME280;11795;47.054;15.408;2023-02-13T02:38:07;99420;;;0.2;77.2
23253;BME280;11795;47.054;15.408;2023-02-13T02:40:09;99410;;;0.0;77.4
23253;BME280;11795;47.054;15.408;2023-02-13T02:42:08;99420;;;-0.0;77.6
23253;BME280;11795;47.054;15.408;2023-02-13T02:44:08;99420;;;0.1;77.1
23253;BME280;11795;47.054;15.408;2023-02-13T02:46:05;99410;;;-0.1;77.4
23253;BME280;11795;47.054;15.408;2023-02-13T02:48:20;99410;;;0.1;77.2
23253;BME280;11795;47.054;15.408;2023-02-13T02:50:13;99410;;;-0.1;77.4
23253;BME280;11795;47.054;15.408;2023-02-13T02:52:04;99410;;;-0.1;77.7
23253;BME280;11795;47.054;15.408;2023-02-13T02:54:06;99410;;;-0.0;77.2
23253;BME280;11795;47.054;15.408;2023-02-13T02:56:04;99410;;;-0.1;77.6
23253;BME280;11795;47.054;15.408;2023-02-13T02:58:15;99410;;;-0.1;77.6
23253;BME280;11795;47.054;15.408;2023-02-13T03:00:10;99410;;;-0.2;77.8
23253;BME280;11795;47.054;15.408;2023-02-13T03:02:11;99410;;;-0.3;78.1
23253;BME280;11795;47.054;15.408;2023-02-13T03:04:16;99410;;;-0.2;77.7
23253;BME280;11795;47.054;15.408;2023-02-13T03:06:14;99410;;;-0.3;78.3
23253;BME280;11795;47.054;15.408;2023-02-13T03:08:01;99410;;;-0.2;78.0
23253;BME280;11795;47.054;15.408;2023-02-13T03:10:14;99410;;;-0.3;78.1
23253;BME280;11795;47.054;15.408;2023-02-13T03:12:10;99410;;;-0.4;78.6
23253;BME280;11795;47.054;15.408;2023-02-13T03:14:02;99410;;;-0.3;78.3
23253;BME280;11795;47.054;15.408;2023-02-13T03:16:11;99410;;;-0.4;78.6
23253;BME280;11795;47.054;15.408;2023-02-13T03:18:10;99410;;;-0.2;78.1
23253;BME280;11795;47.054;15.408;2023-02-13T03:20:14;99410;;;-0.3;78.3
23253;BME280;11795;47.054;15.408;2023-02-13T03:22:15;99410;;;-0.4;78.7
23253;BME280;11795;47.054;15.408;2023-02-13T03:24:05;99400;;;-0.2;78.1
23253;BME280;11795;47.054;15.408;2023-02-13T03:26:14;99400;;;-0.4;78.7
23253;BME280;11795;47.054;15.408;2023-02-13T03:28:15;99400;;;-0.2;78.4
23253;BME280;11795;47.054;15.408;2023-02-13T03:30:17;99390;;;-0.3;78.6
23253;BME280;11795;47.054;15.408;2023-02-13T03:32:08;99400;;;-0.4;79.0
23253;BME280;11795;47.054;15.408;2023-02-13T03:34:03;99390;;;-0.3;78.6
23253;BME280;11795;47.054;15.408;2023-02-13T03:36:14;99400;;;-0.4;79.5
23253;BME280;11795;47.054;15.408;2023-02-13T03:38:04;99390;;;-0.2;79.2
23253;BME280;11795;47.054;15.408;2023-02-13T03:40:04;99390;;;-0.3;79.5
23253;BME280;11795;47.054;15.408;2023-02-13T03:42:05;99390;;;-0.4;79.7
23253;BME280;11795;47.054;15.408;2023-02-13T03:44:09;99380;;;-0.2;79.1
23253;BME280;11795;47.054;15.408;2023-02-13T03:46:02;99380;;;-0.3;79.4
23253;BME280;11795;47.054;15.408;2023-02-13T03:48:03;99380;;;-0.2;79.2
23253;BME280;11795;47.054;15.408;2023-02-13T03:50:06;99380;;;-0.3;79.4
23253;BME280;11795;47.054;15.408;2023-02-13T03:52:04;99380;;;-0.4;79.8
23253;BME280;11795;47.054;15.408;2023-02-13T03:54:04;99380;;;-0.3;79.2
23253;BME280;11795;47.054;15.408;2023-02-13T03:56:12;99390;;;-0.4;79.6
23253;BME280;11795;47.054;15.408;2023-02-13T03:58:14;99380;;;-0.2;79.3
23253;BME280;11795;47.054;15.408;2023-02-13T04:00:02;99380;;;-0.3;79.1
23253;BME280;11795;47.054;15.408;2023-02-13T04:02:04;99380;;;-0.4;79.4
23253;BME280;11795;47.054;15.408;2023-02-13T04:04:07;99380;;;-0.3;79.0
23253;BME280;11795;47.054;15.408;2023-02-13T04:06:04;99380;;;-0.4;79.4
23253;BME280;11795;47.054;15.408;2023-02-13T04:08:00;99380;;;-0.2;79.1
23253;BME280;11795;47.054;15.408;2023-02-13T04:10:03;99390;;;-0.4;79.3
23253;BME280;11795;47.054;15.408;2023-02-13T04:12:05;99380;;;-0.4;79.5
23253;BME280;11795;47.054;15.408;2023-02-13T04:14:03;99390;;;-0.3;79.2
23253;BME280;11795;47.054;15.408;2023-02-13T04:16:06;99390;;;-0.4;79.4
23253;BME280;11795;47.054;15.408;2023-02-13T04:18:04;99390;;;-0.2;78.9
23253;BME280;11795;47.054;15.408;2023-02-13T04:20:00;99390;;;-0.4;79.0
23253;BME280;11795;47.054;15.408;2023-02-13T04:22:01;99380;;;-0.4;79.5
23253;BME280;11795;47.054;15.408;2023-02-13T04:24:00;99380;;;-0.3;79.2
23253;BME280;11795;47.054;15.408;2023-02-13T04:26:03;99380;;;-0.5;79.5
23253;BME280;11795;47.054;15.408;2023-02-13T04:28:00;99380;;;-0.3;79.2
23253;BME280;11795;47.054;15.408;2023-02-13T04:30:00;99380;;;-0.5;79.4
23253;BME280;11795;47.054;15.408;2023-02-13T04:32:00;99380;;;-0.5;79.8
23253;BME280;11795;47.054;15.408;2023-02-13T04:34:00;99380;;;-0.4;79.7
23253;BME280;11795;47.054;15.408;2023-02-13T04:36:00;99380;;;-0.5;80.0
23253;BME280;11795;47.054;15.408;2023-02-13T04:38:00;99380;;;-0.3;79.6
23253;BME280;11795;47.054;15.408;2023-02-13T04:40:00;99380;;;-0.5;79.8
23253;BME280;11795;47.054;15.408;2023-02-13T04:42:00;99390;;;-0.5;80.1
23253;BME280;11795;47.054;15.408;2023-02-13T04:44:00;99380;;;-0.4;79.7
23253;BME280;11795;47.054;15.408;2023-02-13T04:46:00;99380;;;-0.5;80.2
23253;BME280;11795;47.054;15.408;2023-02-13T04:48:00;99380;;;-0.3;79.8
23253;BME280;11795;47.054;15.408;2023-02-13T04:50:00;99380;;;-0.4;80.1
23253;BME280;11795;47.054;15.408;2023-02-13T04:52:00;99380;;;-0.5;80.4
23253;BME280;11795;47.054;15.408;2023-02-13T04:54:00;99380;;;-0.4;79.9
23253;BME280;11795;47.054;15.408;2023-02-13T04:56:00;99380;;;-0.5;80.1
23253;BME280;11795;47.054;15.408;2023-02-13T04:58:00;99390;;;-0.4;80.0
23253;BME280;11795;47.054;15.408;2023-02-13T05:00:00;99390;;;-0.6;80.2
23253;BME280;11795;47.054;15.408;2023-02-13T05:02:00;99390;;;-0.6;80.6
23253;BME280;11795;47.054;15.408;2023-02-13T05:04:00;99390;;;-0.5;80.2
23253;BME280;11795;47.054;15.408;2023-02-13T05:06:00;99390;;;-0.6;80.8
23253;BME280;11795;47.054;15.408;2023-02-13T05:08:00;99390;;;-0.5;80.8
23253;BME280;11795;47.054;15.408;2023-02-13T05:10:00;99390;;;-0.6;80.9
23253;BME280;11795;47.054;15.408;2023-02-13T05:12:01;99390;;;-0.6;81.1
23253;BME280;11795;47.054;15.408;2023-02-13T05:14:00;99390;;;-0.5;80.5
23253;BME280;11795;47.054;15.408;2023-02-13T05:16:00;99390;;;-0.6;80.6
23253;BME280;11795;47.054;15.408;2023-02-13T05:18:00;99390;;;-0.5;80.3
23253;BME280;11795;47.054;15.408;2023-02-13T05:20:00;99400;;;-0.6;80.7
23253;BME280;11795;47.054;15.408;2023-02-13T05:22:10;99400;;;-0.7;81.2
23253;BME280;11795;47.054;15.408;2023-02-13T05:24:00;99400;;;-0.6;80.6
23253;BME280;11795;47.054;15.408;2023-02-13T05:26:00;99390;;;-0.7;80.9
23253;BME280;11795;47.054;15.408;2023-02-13T05:28:00;99390;;;-0.5;80.6
23253;BME280;11795;47.054;15.408;2023-02-13T05:30:00;99390;;;-0.7;80.9
23253;BME280;11795;47.054;15.408;2023-02-13T05:32:00;99390;;;-0.8;81.2
23253;BME280;11795;47.054;15.408;2023-02-13T05:34:00;99390;;;-0.7;80.5
23253;BME280;11795;47.054;15.408;2023-02-13T05:36:00;99390;;;-0.8;80.9
23253;BME280;11795;47.054;15.408;2023-02-13T05:38:00;99390;;;-0.6;80.7
23253;BME280;11795;47.054;15.408;2023-02-13T05:40:00;99380;;;-0.8;80.8
23253;BME280;11795;47.054;15.408;2023-02-13T05:42:00;99380;;;-0.8;81.2
23253;BME280;11795;47.054;15.408;2023-02-13T05:44:00;99390;;;-0.7;80.6
23253;BME280;11795;47.054;15.408;2023-02-13T05:46:02;99390;;;-0.8;80.9
23253;BME280;11795;47.054;15.408;2023-02-13T05:48:00;99390;;;-0.6;80.7
23253;BME280;11795;47.054;15.408;2023-02-13T05:50:00;99390;;;-0.8;80.8
23253;BME280;11795;47.054;15.408;2023-02-13T05:52:00;99390;;;-0.8;81.3
23253;BME280;11795;47.054;15.408;2023-02-13T05:54:00;99390;;;-0.7;80.8
23253;BME280;11795;47.054;15.408;2023-02-13T05:56:01;99380;;;-0.8;81.3
23253;BME280;11795;47.054;15.408;2023-02-13T05:58:00;99390;;;-0.6;81.2
23253;BME280;11795;47.054;15.408;2023-02-13T06:00:00;99380;;;-0.7;81.2
23253;BME280;11795;47.054;15.408;2023-02-13T06:02:00;99380;;;-0.8;81.4
23253;BME280;11795;47.054;15.408;2023-02-13T06:04:00;99390;;;-0.7;80.7
23253;BME280;11795;47.054;15.408;2023-02-13T06:06:00;99390;;;-0.8;81.0
23253;BME280;11795;47.054;15.408;2023-02-13T06:08:00;99390;;;-0.6;80.8
23253;BME280;11795;47.054;15.408;2023-02-13T06:10:00;99380;;;-0.8;80.8
23253;BME280;11795;47.054;15.408;2023-02-13T06:12:00;99390;;;-0.9;81.1
23253;BME280;11795;47.054;15.408;2023-02-13T06:14:00;99390;;;-0.8;80.7
23253;BME280;11795;47.054;15.408;2023-02-13T06:16:00;99390;;;-0.9;81.0
23253;BME280;11795;47.054;15.408;2023-02-13T06:18:00;99400;;;-0.7;80.9
23253;BME280;11795;47.054;15.408;2023-02-13T06:20:00;99400;;;-0.8;80.9
23253;BME280;11795;47.054;15.408;2023-02-13T06:22:00;99400;;;-0.8;81.1
23253;BME280;11795;47.054;15.408;2023-02-13T06:24:00;99400;;;-0.7;80.6
23253;BME280;11795;47.054;15.408;2023-02-13T06:26:01;99400;;;-0.8;81.0
23253;BME280;11795;47.054;15.408;2023-02-13T06:28:00;99400;;;-0.6;80.9
23253;BME280;11795;47.054;15.408;2023-02-13T06:30:00;99410;;;-0.7;80.7
23253;BME280;11795;47.054;15.408;2023-02-13T06:32:00;99400;;;-0.8;80.7
23253;BME280;11795;47.054;15.408;2023-02-13T06:34:00;99400;;;-0.7;80.1
23253;BME280;11795;47.054;15.408;2023-02-13T06:36:00;99410;;;-0.8;80.7
23253;BME280;11795;47.054;15.408;2023-02-13T06:38:00;99410;;;-0.6;80.7
23253;BME280;11795;47.054;15.408;2023-02-13T06:40:00;99410;;;-0.8;81.2
23253;BME280;11795;47.054;15.408;2023-02-13T06:42:00;99410;;;-0.8;81.7
23253;BME280;11795;47.054;15.408;2023-02-13T06:44:00;99410;;;-0.5;81.4
23253;BME280;11795;47.054;15.408;2023-02-13T06:46:04;99410;;;-0.7;82.2
23253;BME280;11795;47.054;15.408;2023-02-13T06:48:00;99410;;;-0.5;82.2
23253;BME280;11795;47.054;15.408;2023-02-13T06:50:00;99420;;;-0.5;82.6
23253;BME280;11795;47.054;15.408;2023-02-13T06:52:00;99430;;;-0.5;82.6
23253;BME280;11795;47.054;15.408;2023-02-13T06:54:00;99430;;;-0.3;82.2
23253;BME280;11795;47.054;15.408;2023-02-13T06:56:03;99430;;;-0.4;82.2
23253;BME280;11795;47.054;15.408;2023-02-13T06:58:00;99420;;;-0.2;81.9
23253;BME280;11795;47.054;15.408;2023-02-13T07:00:05;99430;;;-0.2;81.6
23253;BME280;11795;47.054;15.408;2023-02-13T07:02:00;99420;;;-0.2;81.7
23253;BME280;11795;47.054;15.408;2023-02-13T07:04:00;99420;;;-0.0;81.3
23253;BME280;11795;47.054;15.408;2023-02-13T07:06:00;99430;;;-0.1;81.7
23253;BME280;11795;47.054;15.408;2023-02-13T07:08:00;99420;;;0.1;81.4
23253;BME280;11795;47.054;15.408;2023-02-13T07:10:01;99420;;;0.0;81.7
23253;BME280;11795;47.054;15.408;2023-02-13T07:12:01;99420;;;0.0;82.0
23253;BME280;11795;47.054;15.408;2023-02-13T07:14:00;99420;;;0.3;81.3
23253;BME280;11795;47.054;15.408;2023-02-13T07:16:00;99420;;;0.3;81.5
23253;BME280;11795;47.054;15.408;2023-02-13T07:18:01;99420;;;0.7;81.2
23253;BME280;11795;47.054;15.408;2023-02-13T07:20:00;99420;;;1.0;81.1
23253;BME280;11795;47.054;15.408;2023-02-13T07:22:00;99410;;;1.3;80.2
23253;BME280;11795;47.054;15.408;2023-02-13T07:24:00;99410;;;1.8;78.6
23253;BME280;11795;47.054;15.408;2023-02-13T07:26:01;99410;;;2.2;77.8
23253;BME280;11795;47.054;15.408;2023-02-13T07:28:01;99410;;;2.8;75.4
23253;BME280;11795;47.054;15.408;2023-02-13T07:30:00;99400;;;3.2;73.7
23253;BME280;11795;47.054;15.408;2023-02-13T07:32:00;99400;;;3.7;71.9
23253;BME280;11795;47.054;15.408;2023-02-13T07:34:00;99390;;;4.2;69.0
23253;BME280;11795;47.054;15.408;2023-02-13T07:36:03;99390;;;4.6;67.0
23253;BME280;11795;47.054;15.408;2023-02-13T07:38:00;99390;;;5.1;65.8
23253;BME280;11795;47.054;15.408;2023-02-13T07:40:00;99390;;;5.5;64.7
23253;BME280;11795;47.054;15.408;2023-02-13T07:42:00;99390;;;5.8;63.1
23253;BME280;11795;47.054;15.408;2023-02-13T07:44:00;99390;;;6.2;61.4
23253;BME280;11795;47.054;15.408;2023-02-13T07:46:02;99380;;;6.6;60.0
23253;BME280;11795;47.054;15.408;2023-02-13T07:48:00;99380;;;7.8;57.4
23253;BME280;11795;47.054;15.408;2023-02-13T07:50:00;99370;;;8.8;54.1
23253;BME280;11795;47.054;15.408;2023-02-13T07:52:00;99370;;;10.1;50.1
23253;BME280;11795;47.054;15.408;2023-02-13T07:54:01;99370;;;11.7;46.1
23253;BME280;11795;47.054;15.408;2023-02-13T07:56:04;99370;;;12.6;43.9
23253;BME280;11795;47.054;15.408;2023-02-13T07:58:00;99370;;;13.4;41.4
23253;BME280;11795;47.054;15.408;2023-02-13T08:00:00;99370;;;13.7;40.5
23253;BME280;11795;47.054;15.408;2023-02-13T08:02:00;99370;;;13.9;39.6
23253;BME280;11795;47.054;15.408;2023-02-13T08:04:00;99360;;;14.1;39.3
23253;BME280;11795;47.054;15.408;2023-02-13T08:06:00;99360;;;14.0;39.3
23253;BME280;11795;47.054;15.408;2023-02-13T08:08:00;99360;;;14.1;39.1
23253;BME280;11795;47.054;15.408;2023-02-13T08:10:11;99360;;;13.8;39.6
23253;BME280;11795;47.054;15.408;2023-02-13T08:12:00;99360;;;13.3;40.3
23253;BME280;11795;47.054;15.408;2023-02-13T08:14:00;99360;;;13.3;40.4
23253;BME280;11795;47.054;15.408;2023-02-13T08:16:00;99350;;;13.0;41.0
23253;BME280;11795;47.054;15.408;2023-02-13T08:18:00;99350;;;12.6;42.0
23253;BME280;11795;47.054;15.408;2023-02-13T08:20:00;99350;;;12.3;42.5
23253;BME280;11795;47.054;15.408;2023-02-13T08:22:00;99350;;;12.1;43.2
23253;BME280;11795;47.054;15.408;2023-02-13T08:24:00;99350;;;11.9;43.4
23253;BME280;11795;47.054;15.408;2023-02-13T08:26:01;99350;;;11.5;44.3
23253;BME280;11795;47.054;15.408;2023-02-13T08:28:00;99360;;;11.4;45.1
23253;BME280;11795;47.054;15.408;2023-02-13T08:30:01;99350;;;11.6;44.7
23253;BME280;11795;47.054;15.408;2023-02-13T08:32:00;99350;;;11.7;44.3
23253;BME280;11795;47.054;15.408;2023-02-13T08:34:00;99350;;;11.6;44.7
23253;BME280;11795;47.054;15.408;2023-02-13T08:36:02;99350;;;11.6;45.1
23253;BME280;11795;47.054;15.408;2023-02-13T08:38:01;99350;;;11.6;45.4
23253;BME280;11795;47.054;15.408;2023-02-13T08:40:00;99350;;;11.9;44.3
23253;BME280;11795;47.054;15.408;2023-02-13T08:42:00;99350;;;11.7;44.9
23253;BME280;11795;47.054;15.408;2023-02-13T08:44:00;99350;;;11.9;44.5
23253;BME280;11795;47.054;15.408;2023-02-13T08:46:01;99350;;;12.1;43.9
23253;BME280;11795;47.054;15.408;2023-02-13T08:48:00;99350;;;11.9;44.6
23253;BME280;11795;47.054;15.408;2023-02-13T08:50:00;99340;;;11.7;44.6
23253;BME280;11795;47.054;15.408;2023-02-13T08:52:01;99340;;;11.9;45.1
23253;BME280;11795;47.054;15.408;2023-02-13T08:54:00;99340;;;12.2;44.2
23253;BME280;11795;47.054;15.408;2023-02-13T08:56:00;99330;;;12.4;43.9
23253;BME280;11795;47.054;15.408;2023-02-13T08:58:01;99340;;;12.2;43.5
23253;BME280;11795;47.054;15.408;2023-02-13T09:00:00;99340;;;12.1;44.2
23253;BME280;11795;47.054;15.408;2023-02-13T09:02:00;99340;;;12.1;44.0
23253;BME280;11795;47.054;15.408;2023-02-13T09:04:00;99340;;;12.1;43.6
23253;BME280;11795;47.054;15.408;2023-02-13T09:06:01;99340;;;12.2;43.6
23253;BME280;11795;47.054;15.408;2023-02-13T09:08:02;99340;;;12.4;43.8
23253;BME280;11795;47.054;15.408;2023-02-13T09:10:00;99340;;;12.5;43.7
23253;BME280;11795;47.054;15.408;2023-02-13T09:12:00;99340;;;12.7;43.6
23253;BME280;11795;47.054;15.408;2023-02-13T09:14:00;99340;;;12.7;42.4
23253;BME280;11795;47.054;15.408;2023-02-13T09:16:01;99350;;;12.5;44.0
23253;BME280;11795;47.054;15.408;2023-02-13T09:18:00;99350;;;12.5;43.7
23253;BME280;11795;47.054;15.408;2023-02-13T09:20:00;99350;;;12.3;43.3
23253;BME280;11795;47.054;15.408;2023-02-13T09:22:00;99350;;;12.3;44.1
23253;BME280;11795;47.054;15.408;2023-02-13T09:24:00;99350;;;12.6;43.4
23253;BME280;11795;47.054;15.408;2023-02-13T09:26:02;99350;;;12.5;43.7
23253;BME280;11795;47.054;15.408;2023-02-13T09:28:00;99350;;;12.3;44.1
23253;BME280;11795;47.054;15.408;2023-02-13T09:30:00;99350;;;12.6;43.8
23253;BME280;11795;47.054;15.408;2023-02-13T09:32:00;99360;;;12.6;44.0
23253;BME280;11795;47.054;15.408;2023-02-13T09:34:00;99360;;;13.0;43.3
23253;BME280;11795;47.054;15.408;2023-02-13T09:36:03;99350;;;12.9;42.8
23253;BME280;11795;47.054;15.408;2023-02-13T09:38:00;99350;;;12.8;42.7
23253;BME280;11795;47.054;15.408;2023-02-13T09:40:00;99350;;;12.7;43.7
23253;BME280;11795;47.054;15.408;2023-02-13T09:42:01;99360;;;12.6;43.1
23253;BME280;11795;47.054;15.408;2023-02-13T09:44:04;99360;;;12.3;44.0
23253;BME280;11795;47.054;15.408;2023-02-13T09:46:04;99370;;;12.4;43.8
23253;BME280;11795;47.054;15.408;2023-02-13T09:48:00;99370;;;12.3;44.2
23253;BME280;11795;47.054;15.408;2023-02-13T09:50:03;99360;;;12.5;44.6
23253;BME280;11795;47.054;15.408;2023-02-13T09:52:00;99370;;;12.6;44.4
23253;BME280;11795;47.054;15.408;2023-02-13T09:54:02;99370;;;12.6;43.7
23253;BME280;11795;47.054;15.408;2023-02-13T09:56:07;99360;;;12.6;43.7
23253;BME280;11795;47.054;15.408;2023-02-13T09:58:06;99360;;;12.5;43.4
23253;BME280;11795;47.054;15.408;2023-02-13T10:00:05;99360;;;12.6;43.4
23253;BME280;11795;47.054;15.408;2023-02-13T10:02:13;99370;;;12.7;43.4
23253;BME280;11795;47.054;15.408;2023-02-13T10:04:14;99360;;;12.8;43.1
23253;BME280;11795;47.054;15.408;2023-02-13T10:06:06;99370;;;12.5;43.2
23253;BME280;11795;47.054;15.408;2023-02-13T10:08:05;99370;;;12.2;43.5
23253;BME280;11795;47.054;15.408;2023-02-13T10:10:02;99370;;;12.0;45.1
23253;BME280;11795;47.054;15.408;2023-02-13T10:12:12;99370;;;12.1;45.0
23253;BME280;11795;47.054;15.408;2023-02-13T10:14:05;99360;;;12.3;44.3
23253;BME280;11795;47.054;15.408;2023-02-13T10:16:06;99360;;;12.2;44.7
23253;BME280;11795;47.054;15.408;2023-02-13T10:18:03;99360;;;12.5;44.4
23253;BME280;11795;47.054;15.408;2023-02-13T10:20:04;99350;;;12.6;43.9
23253;BME280;11795;47.054;15.408;2023-02-13T10:22:04;99350;;;12.7;43.9
23253;BME280;11795;47.054;15.408;2023-02-13T10:24:04;99350;;;12.9;43.9
23253;BME280;11795;47.054;15.408;2023-02-13T10:26:02;99340;;;12.7;44.2
23253;BME280;11795;47.054;15.408;2023-02-13T10:28:04;99340;;;12.6;44.1
23253;BME280;11795;47.054;15.408;2023-02-13T10:30:17;99350;;;12.9;44.0
23253;BME280;11795;47.054;15.408;2023-02-13T10:32:03;99350;;;12.6;44.2
23253;BME280;11795;47.054;15.408;2023-02-13T10:34:02;99340;;;12.9;43.8
23253;BME280;11795;47.054;15.408;2023-02-13T10:36:03;99340;;;12.8;42.9
23253;BME280;11795;47.054;15.408;2023-02-13T10:38:11;99350;;;12.6;43.7
23253;BME280;11795;47.054;15.408;2023-02-13T10:40:01;99340;;;12.5;43.7
23253;BME280;11795;47.054;15.408;2023-02-13T10:42:07;99340;;;12.6;44.1
23253;BME280;11795;47.054;15.408;2023-02-13T10:44:14;99330;;;12.8;43.4
23253;BME280;11795;47.054;15.408;2023-02-13T10:46:09;99330;;;12.6;44.2
23253;BME280;11795;47.054;15.408;2023-02-13T10:48:08;99330;;;12.9;44.1
23253;BME280;11795;47.054;15.408;2023-02-13T10:50:13;99330;;;13.0;44.0
23253;BME280;11795;47.054;15.408;2023-02-13T10:52:07;99330;;;12.9;43.0
23253;BME280;11795;47.054;15.408;2023-02-13T10:56:14;99330;;;13.0;43.1
23253;BME280;11795;47.054;15.408;2023-02-13T10:58:07;99330;;;12.9;43.6
23253;BME280;11795;47.054;15.408;2023-02-13T11:00:06;99330;;;13.0;43.5
23253;BME280;11795;47.054;15.408;2023-02-13T11:02:06;99330;;;12.7;43.0
23253;BME280;11795;47.054;15.408;2023-02-13T11:04:04;99330;;;12.5;43.6
23253;BME280;11795;47.054;15.408;2023-02-13T11:06:05;99330;;;12.3;44.0
23253;BME280;11795;47.054;15.408;2023-02-13T11:08:02;99330;;;12.2;44.3
23253;BME280;11795;47.054;15.408;2023-02-13T11:10:04;99330;;;12.3;44.2
23253;BME280;11795;47.054;15.408;2023-02-13T11:14:09;99320;;;12.9;43.4
23253;BME280;11795;47.054;15.408;2023-02-13T11:16:02;99310;;;12.9;43.2
23253;BME280;11795;47.054;15.408;2023-02-13T11:18:12;99310;;;12.8;43.4